Time;durP1;ratioP1;P1;durP2;ratioP2;P2;SDS_P1;SDS_P2;PMS_P1;PMS_P2;Temp;Humidity;BMP_temperature;BMP_pressure;BME280_temperature;BME280_humidity;BME280_pressure;Samples;Min_cycle;Max_cycle;Signal;HPM_P1;HPM_P2
2020/12/11 00:01:31;;;;;;;14.48;10.73;;;19.60;49.60;;;;;;4985626;28;20134;-62
2020/12/11 00:03:56;;;;;;;16.35;11.48;;;19.50;49.40;;;;;;4986498;28;20463;-61
2020/12/11 00:06:23;;;;;;;14.93;10.43;;;19.50;49.40;;;;;;5004766;28;20120;-61
2020/12/11 00:08:48;;;;;;;14.10;10.80;;;19.50;49.30;;;;;;4987541;28;20536;-62
2020/12/11 00:11:14;;;;;;;15.55;10.18;;;19.50;49.40;;;;;;5003855;28;20048;-62
2020/12/11 00:13:39;;;;;;;13.98;10.43;;;19.50;49.30;;;;;;5004356;28;20113;-62
2020/12/11 00:16:05;;;;;;;15.27;10.45;;;19.40;49.30;;;;;;5004098;28;20554;-61
2020/12/11 00:18:31;;;;;;;11.50;9.07;;;19.40;49.30;;;;;;5004148;28;20092;-61
2020/12/11 00:21:00;;;;;;;12.77;9.30;;;19.40;49.40;;;;;;5004235;28;20030;-63
2020/12/11 00:23:26;;;;;;;13.13;9.27;;;19.40;49.50;;;;;;5004001;28;20046;-61
2020/12/11 00:25:58;;;;;;;13.38;9.73;;;19.40;49.50;;;;;;5003884;28;20049;-62
2020/12/11 00:28:25;;;;;;;12.95;8.93;;;19.30;49.50;;;;;;4987058;28;20059;-63
2020/12/11 00:30:50;;;;;;;12.38;9.65;;;19.30;49.60;;;;;;5004128;28;20530;-63
2020/12/11 00:33:15;;;;;;;13.40;9.48;;;19.30;49.70;;;;;;5003913;28;20065;-62
2020/12/11 00:35:41;;;;;;;12.15;9.38;;;19.20;49.70;;;;;;5003642;28;20038;-62
2020/12/11 00:38:06;;;;;;;12.63;9.32;;;19.20;49.70;;;;;;5003889;28;20459;-61
2020/12/11 00:40:32;;;;;;;10.23;8.75;;;19.20;49.70;;;;;;5004071;28;20033;-61
2020/12/11 00:42:57;;;;;;;11.60;8.82;;;19.20;49.70;;;;;;5003408;28;20034;-62
2020/12/11 00:45:23;;;;;;;11.60;8.80;;;19.10;49.70;;;;;;5004438;28;20501;-63
2020/12/11 00:47:48;;;;;;;11.15;8.73;;;19.10;49.80;;;;;;5004068;28;20061;-61
2020/12/11 00:50:14;;;;;;;10.65;8.68;;;19.10;49.70;;;;;;5003489;28;20034;-61
2020/12/11 00:52:39;;;;;;;12.85;9.40;;;19.10;49.80;;;;;;5003589;28;20041;-63
2020/12/11 00:55:05;;;;;;;11.95;9.55;;;19.10;49.90;;;;;;5003352;28;20567;-62
2020/12/11 00:57:30;;;;;;;11.93;8.82;;;19.10;49.90;;;;;;5003823;28;20057;-63
2020/12/11 00:59:56;;;;;;;12.55;9.68;;;19.00;49.90;;;;;;5003196;28;20026;-63
2020/12/11 01:02:21;;;;;;;12.30;9.70;;;18.90;49.90;;;;;;4986645;28;20034;-61
2020/12/11 01:04:47;;;;;;;11.55;9.10;;;18.90;50.00;;;;;;5003745;28;20037;-61
2020/12/11 01:07:12;;;;;;;12.35;9.55;;;18.90;50.00;;;;;;4986383;28;20026;-62
2020/12/11 01:09:38;;;;;;;12.18;9.63;;;18.90;50.00;;;;;;5003372;28;20034;-63
2020/12/11 01:12:03;;;;;;;12.15;9.48;;;18.90;50.00;;;;;;5003241;28;20042;-62
2020/12/11 01:14:29;;;;;;;10.60;8.35;;;18.90;50.00;;;;;;5007488;28;20526;-51
2020/12/11 01:16:54;;;;;;;11.98;9.27;;;18.80;50.00;;;;;;5007658;28;20046;-62
2020/12/11 01:19:20;;;;;;;13.82;9.90;;;18.80;50.10;;;;;;5007774;28;20068;-62
2020/12/11 01:21:45;;;;;;;13.65;9.48;;;18.80;49.90;;;;;;5007155;28;20699;-62
2020/12/11 01:24:11;;;;;;;10.40;8.07;;;19.00;50.00;;;;;;5007235;28;20041;-61
2020/12/11 01:26:36;;;;;;;11.07;8.13;;;19.10;50.00;;;;;;5007200;28;20038;-61
2020/12/11 01:29:01;;;;;;;10.02;8.05;;;19.20;50.10;;;;;;5007149;28;20033;-62
2020/12/11 01:31:27;;;;;;;12.95;9.05;;;19.20;50.10;;;;;;5006783;28;20511;-63
2020/12/11 01:33:52;;;;;;;9.48;7.72;;;19.40;50.00;;;;;;5007949;28;20038;-62
2020/12/11 01:36:25;;;;;;;10.98;8.15;;;19.40;49.90;;;;;;5006722;28;20045;-63
2020/12/11 01:38:50;;;;;;;13.45;8.82;;;19.50;49.80;;;;;;5007202;28;20116;-64
2020/12/11 01:41:16;;;;;;;11.38;9.10;;;19.50;49.60;;;;;;5006586;28;20046;-63
2020/12/11 01:43:41;;;;;;;11.73;9.20;;;19.50;50.10;;;;;;5006130;28;20026;-63
2020/12/11 01:46:07;;;;;;;12.00;8.98;;;19.50;49.40;;;;;;5006478;28;20037;-62
2020/12/11 01:48:32;;;;;;;12.80;8.93;;;19.50;49.30;;;;;;5007203;28;20034;-60
2020/12/11 01:50:58;;;;;;;12.80;9.57;;;19.50;49.20;;;;;;4989904;28;20030;-63
2020/12/11 01:53:23;;;;;;;14.52;9.73;;;19.50;49.10;;;;;;4988983;28;20044;-61
2020/12/11 01:55:49;;;;;;;12.23;9.57;;;19.50;49.10;;;;;;4989108;28;20854;-63
2020/12/11 01:58:18;;;;;;;12.55;9.20;;;19.50;49.10;;;;;;5005162;28;20038;-61
2020/12/11 02:00:44;;;;;;;12.45;9.23;;;19.50;49.10;;;;;;4988919;28;20025;-61
2020/12/11 02:03:10;;;;;;;11.98;9.13;;;19.40;49.10;;;;;;4973043;28;20053;-62
2020/12/11 02:05:35;;;;;;;10.32;7.93;;;19.40;49.10;;;;;;5006550;28;20108;-61
2020/12/11 02:08:01;;;;;;;12.98;9.27;;;19.40;49.30;;;;;;5006792;28;20121;-62
2020/12/11 02:10:27;;;;;;;12.02;8.98;;;19.40;49.40;;;;;;5007294;28;20033;-61
2020/12/11 02:12:53;;;;;;;11.43;7.85;;;19.30;49.40;;;;;;5005685;28;20042;-63
2020/12/11 02:15:18;;;;;;;11.40;8.15;;;19.30;49.40;;;;;;5006039;28;20512;-62
2020/12/11 02:17:44;;;;;;;11.07;8.73;;;19.30;50.10;;;;;;5005601;28;20125;-61
2020/12/11 02:20:09;;;;;;;11.90;8.32;;;19.30;49.50;;;;;;4989750;28;20072;-55
2020/12/11 02:22:34;;;;;;;9.55;7.45;;;19.20;49.60;;;;;;5005723;28;20057;-62
2020/12/11 02:25:00;;;;;;;11.73;8.15;;;19.20;49.50;;;;;;5006426;28;20037;-61
2020/12/11 02:27:25;;;;;;;10.32;8.27;;;19.20;49.60;;;;;;5006352;28;20467;-63
2020/12/11 02:29:51;;;;;;;11.63;8.38;;;19.10;49.60;;;;;;5005782;28;20030;-62
2020/12/11 02:32:17;;;;;;;11.73;8.05;;;19.10;49.60;;;;;;5006159;28;20124;-61
2020/12/11 02:34:42;;;;;;;10.40;8.10;;;19.10;49.70;;;;;;5006151;28;20030;-63
2020/12/11 02:37:08;;;;;;;11.40;8.60;;;19.10;49.70;;;;;;4988036;28;20022;-61
2020/12/11 02:39:34;;;;;;;10.38;7.95;;;19.10;49.70;;;;;;5005810;28;20408;-63
2020/12/11 02:41:59;;;;;;;10.95;7.78;;;19.00;49.80;;;;;;5005825;28;20041;-61
2020/12/11 02:44:25;;;;;;;11.18;8.05;;;19.00;49.80;;;;;;5005695;28;20030;-62
2020/12/11 02:46:50;;;;;;;9.50;7.72;;;19.00;49.80;;;;;;4999804;28;20030;-60
2020/12/11 02:49:16;;;;;;;9.43;7.75;;;18.90;49.80;;;;;;5005627;28;20057;-62
2020/12/11 02:51:41;;;;;;;10.10;7.30;;;18.90;49.80;;;;;;5005528;28;20733;-63
2020/12/11 02:54:07;;;;;;;9.18;7.70;;;18.90;49.90;;;;;;4988203;28;20029;-62
2020/12/11 02:56:33;;;;;;;8.75;7.40;;;18.90;49.90;;;;;;4988202;28;20137;-61
2020/12/11 02:58:58;;;;;;;9.75;8.05;;;18.90;49.90;;;;;;5020063;22;20042;-63
2020/12/11 03:01:27;;;;;;;8.07;6.80;;;18.80;49.90;;;;;;5023507;28;20079;-64
2020/12/11 03:03:55;;;;;;;10.82;8.30;;;18.80;49.80;;;;;;5024410;28;20057;-65
2020/12/11 03:06:26;;;;;;;9.13;7.72;;;18.80;50.00;;;;;;5025292;28;20038;-66
2020/12/11 03:08:51;;;;;;;11.10;8.70;;;18.80;49.90;;;;;;5024704;28;20087;-65
2020/12/11 03:11:17;;;;;;;9.07;7.45;;;18.90;49.80;;;;;;5025209;28;20037;-65
2020/12/11 03:13:42;;;;;;;10.70;8.02;;;19.00;50.50;;;;;;5025319;28;20039;-66
2020/12/11 03:16:08;;;;;;;9.88;7.88;;;19.10;49.80;;;;;;5007319;28;20047;-66
2020/12/11 03:18:34;;;;;;;9.60;6.93;;;19.20;49.90;;;;;;5025445;28;20543;-65
2020/12/11 03:20:59;;;;;;;9.73;7.40;;;19.20;49.90;;;;;;5025663;28;20115;-66
2020/12/11 03:23:25;;;;;;;9.50;7.43;;;19.30;49.80;;;;;;5025343;28;20038;-65
2020/12/11 03:25:50;;;;;;;9.52;7.20;;;19.40;49.90;;;;;;5024914;28;20728;-66
2020/12/11 03:28:16;;;;;;;9.25;7.05;;;19.50;49.90;;;;;;5024859;28;20038;-66
2020/12/11 03:30:41;;;;;;;9.15;7.07;;;19.50;49.70;;;;;;5024806;28;20033;-65
2020/12/11 03:33:07;;;;;;;8.52;7.13;;;19.50;49.50;;;;;;5025225;28;20037;-64
2020/12/11 03:35:33;;;;;;;8.70;6.68;;;19.50;49.30;;;;;;5024622;28;20167;-65
2020/12/11 03:37:58;;;;;;;9.23;7.25;;;19.50;49.40;;;;;;5024546;28;20518;-65
2020/12/11 03:40:24;;;;;;;11.45;8.10;;;19.50;49.20;;;;;;5024979;28;20041;-65
2020/12/11 03:42:49;;;;;;;8.68;7.20;;;19.50;49.00;;;;;;5024492;28;20041;-65
2020/12/11 03:45:14;;;;;;;9.00;7.50;;;19.50;49.00;;;;;;5024711;28;20033;-64
2020/12/11 03:47:40;;;;;;;8.88;7.20;;;19.50;49.60;;;;;;5024836;28;20033;-63
2020/12/11 03:50:06;;;;;;;12.95;7.78;;;19.50;48.90;;;;;;5025063;28;20053;-65
2020/12/11 03:52:31;;;;;;;9.00;7.60;;;19.50;48.90;;;;;;5024424;28;20060;-65
2020/12/11 03:54:57;;;;;;;8.35;6.80;;;19.40;48.90;;;;;;5024266;28;20034;-65
2020/12/11 03:57:23;;;;;;;9.25;7.15;;;19.40;48.90;;;;;;5024610;28;20099;-65
2020/12/11 03:59:48;;;;;;;8.93;6.95;;;19.40;48.90;;;;;;5006581;28;20079;-64
2020/12/11 04:02:15;;;;;;;9.52;7.18;;;19.40;49.10;;;;;;5024680;28;20491;-64
2020/12/11 04:04:41;;;;;;;9.27;7.35;;;19.30;49.30;;;;;;5024623;28;20056;-66
2020/12/11 04:07:07;;;;;;;8.25;7.10;;;19.30;49.30;;;;;;5024654;28;20037;-65
2020/12/11 04:09:32;;;;;;;9.32;6.95;;;19.30;49.40;;;;;;5024037;28;20163;-64
2020/12/11 04:11:58;;;;;;;8.63;7.18;;;19.20;49.30;;;;;;5023634;28;20033;-65
2020/12/11 04:14:23;;;;;;;9.10;6.93;;;19.20;49.40;;;;;;5024451;28;20033;-64
2020/12/11 04:16:49;;;;;;;7.88;6.50;;;19.20;49.50;;;;;;5024508;28;20041;-65
2020/12/11 04:19:15;;;;;;;7.68;6.47;;;19.20;49.50;;;;;;5019267;28;20081;-65
2020/12/11 04:21:51;;;;;;;8.50;7.10;;;19.10;49.50;;;;;;5021086;28;20036;-65
2020/12/11 04:24:18;;;;;;;8.15;6.68;;;19.10;49.50;;;;;;5022473;28;20468;-65
2020/12/11 04:26:43;;;;;;;8.82;6.47;;;19.10;49.50;;;;;;5023321;28;20060;-65
2020/12/11 04:29:09;;;;;;;8.20;6.78;;;19.10;49.60;;;;;;5023004;28;20500;-65
2020/12/11 04:31:34;;;;;;;7.82;6.53;;;19.10;49.60;;;;;;5025268;28;20520;-65
2020/12/11 04:34:00;;;;;;;8.98;6.75;;;19.00;49.60;;;;;;5024024;28;20118;-63
2020/12/11 04:36:25;;;;;;;8.77;6.32;;;19.00;49.60;;;;;;5023577;28;20040;-65
2020/12/11 04:38:51;;;;;;;8.00;6.25;;;19.00;49.60;;;;;;5023632;28;20044;-66
2020/12/11 04:41:16;;;;;;;8.30;6.22;;;18.90;49.60;;;;;;5023875;28;20489;-66
2020/12/11 04:43:43;;;;;;;8.10;6.63;;;18.90;49.60;;;;;;4990167;28;20037;-64
2020/12/11 04:46:08;;;;;;;8.40;6.47;;;18.90;49.70;;;;;;5023781;28;20492;-65
2020/12/11 04:48:34;;;;;;;6.82;6.10;;;18.90;49.80;;;;;;5006257;28;20056;-66
2020/12/11 04:51:03;;;;;;;8.13;7.05;;;18.80;49.70;;;;;;5023373;28;20175;-67
2020/12/11 04:53:36;;;;;;;8.70;6.82;;;18.80;49.80;;;;;;5023270;28;20167;-66
2020/12/11 04:56:05;;;;;;;6.45;5.60;;;18.80;49.80;;;;;;5023368;28;20045;-64
2020/12/11 04:58:31;;;;;;;8.10;6.22;;;18.80;49.80;;;;;;5023380;28;20503;-65
2020/12/11 05:01:04;;;;;;;7.28;5.82;;;18.90;49.60;;;;;;5023209;28;20076;-65
2020/12/11 05:03:33;;;;;;;7.43;6.60;;;19.00;49.70;;;;;;5023761;28;20037;-66
2020/12/11 05:05:59;;;;;;;8.05;6.13;;;19.00;49.40;;;;;;5006500;28;20037;-66
2020/12/11 05:08:25;;;;;;;7.35;6.03;;;19.10;49.60;;;;;;5023513;28;20037;-66
2020/12/11 05:10:50;;;;;;;7.18;5.75;;;19.10;49.50;;;;;;5023541;28;20034;-65
2020/12/11 05:13:20;;;;;;;8.57;5.82;;;19.20;49.50;;;;;;5023686;28;20042;-66
2020/12/11 05:16:06;;;;;;;6.95;5.65;;;19.20;49.40;;;;;;5024130;28;20048;-65
2020/12/11 05:18:32;;;;;;;7.53;6.00;;;19.30;49.40;;;;;;5022554;28;20040;-64
2020/12/11 05:21:13;;;;;;;7.50;6.40;;;19.30;49.30;;;;;;5023166;28;20045;-63
2020/12/11 05:23:53;;;;;;;7.55;6.38;;;19.30;49.10;;;;;;5023042;28;20404;-63
2020/12/11 05:26:19;;;;;;;7.22;5.43;;;19.40;49.60;;;;;;5022677;28;20527;-64
2020/12/11 05:28:45;;;;;;;7.65;6.03;;;19.30;49.10;;;;;;5023359;28;20226;-64
2020/12/11 05:31:11;;;;;;;9.32;6.40;;;19.30;49.00;;;;;;5022602;28;20113;-67
2020/12/11 05:33:36;;;;;;;7.35;6.43;;;19.30;48.90;;;;;;4989262;28;20426;-67
2020/12/11 05:36:02;;;;;;;7.75;5.88;;;19.30;48.90;;;;;;5022946;28;20033;-65
2020/12/11 05:38:27;;;;;;;7.60;5.70;;;19.30;48.90;;;;;;5023509;28;20040;-67
2020/12/11 05:40:54;;;;;;;7.30;5.63;;;19.30;49.10;;;;;;5022511;28;20468;-66
2020/12/11 05:43:23;;;;;;;7.10;5.70;;;19.20;49.10;;;;;;5022862;28;20045;-65
2020/12/11 05:45:55;;;;;;;6.43;5.38;;;19.20;49.20;;;;;;5023622;28;20044;-63
2020/12/11 05:48:36;;;;;;;7.28;6.05;;;19.20;49.30;;;;;;5023299;28;20041;-63
2020/12/11 05:51:12;;;;;;;7.68;6.05;;;19.20;49.40;;;;;;5022381;28;20524;-62
2020/12/11 05:53:37;;;;;;;7.78;5.60;;;19.20;49.30;;;;;;5023362;28;20049;-63
2020/12/11 05:56:03;;;;;;;5.88;5.28;;;19.10;49.40;;;;;;5004865;28;20033;-63
2020/12/11 05:58:28;;;;;;;9.45;6.13;;;19.10;49.40;;;;;;5005967;28;20037;-62
2020/12/11 06:00:54;;;;;;;8.85;5.80;;;19.10;49.50;;;;;;5025535;28;20495;-63
2020/12/11 06:03:19;;;;;;;7.72;5.70;;;19.00;49.40;;;;;;4992832;28;20065;-62
2020/12/11 06:05:45;;;;;;;8.35;5.78;;;19.00;49.50;;;;;;4993208;28;20086;-63
2020/12/11 06:08:11;;;;;;;8.48;5.70;;;19.00;49.50;;;;;;5008590;28;20067;-62
2020/12/11 06:10:38;;;;;;;6.82;5.60;;;19.00;49.60;;;;;;5026424;28;20539;-62
2020/12/11 06:13:04;;;;;;;7.47;5.90;;;18.90;49.60;;;;;;4991938;28;20052;-63
2020/12/11 06:15:34;;;;;;;6.63;5.82;;;18.90;49.60;;;;;;5026547;28;20507;-61
2020/12/11 06:18:22;;;;;;;7.70;5.68;;;18.90;49.60;;;;;;5008456;28;20034;-63
2020/12/11 06:20:48;;;;;;;8.00;5.60;;;18.90;49.60;;;;;;5026413;28;20038;-62
2020/12/11 06:23:26;;;;;;;7.00;5.85;;;18.80;49.60;;;;;;5008101;28;20034;-62
2020/12/11 06:25:55;;;;;;;6.78;6.00;;;18.80;49.60;;;;;;5027629;28;20056;-63
2020/12/11 06:28:39;;;;;;;9.35;6.38;;;18.90;49.50;;;;;;5027443;28;20043;-65
2020/12/11 06:31:05;;;;;;;8.10;5.50;;;18.90;49.50;;;;;;5034696;28;20033;-65
2020/12/11 06:33:31;;;;;;;8.23;5.75;;;19.00;49.60;;;;;;5028524;28;20036;-64
2020/12/11 06:35:57;;;;;;;9.95;6.40;;;19.10;49.50;;;;;;5029459;28;20087;-64
2020/12/11 06:38:42;;;;;;;8.23;6.70;;;19.20;49.60;;;;;;5047678;28;20040;-65
2020/12/11 06:41:08;;;;;;;9.05;6.10;;;19.20;49.50;;;;;;5047196;28;20039;-64
2020/12/11 06:43:43;;;;;;;8.07;6.10;;;19.30;49.50;;;;;;5029296;28;20124;-62
2020/12/11 06:46:19;;;;;;;9.18;6.63;;;19.30;49.50;;;;;;5047504;28;20063;-63
2020/12/11 06:49:03;;;;;;;;;;;19.40;49.50;;;;;;5047662;28;20044;-64
2020/12/11 06:51:29;;;;;;;10.27;7.82;;;19.40;49.40;;;;;;5039158;28;21679;-63
2020/12/11 06:53:54;;;;;;;10.73;7.28;;;19.40;49.30;;;;;;5047180;28;20037;-64
2020/12/11 06:56:39;;;;;;;10.82;8.00;;;19.40;49.30;;;;;;5047244;28;20039;-63
2020/12/11 06:59:23;;;;;;;17.05;9.02;;;19.40;49.30;;;;;;5046961;28;20036;-64
2020/12/11 07:01:52;;;;;;;11.40;8.65;;;19.40;49.70;;;;;;5047539;28;20510;-64
2020/12/11 07:04:17;;;;;;;11.13;8.23;;;19.40;49.50;;;;;;5030375;28;20492;-64
2020/12/11 07:06:49;;;;;;;10.98;7.20;;;19.30;49.40;;;;;;5049173;28;20025;-64
2020/12/11 07:09:15;;;;;;;12.13;7.50;;;19.30;49.50;;;;;;5047725;28;20045;-63
2020/12/11 07:11:42;;;;;;;7.82;6.82;;;19.20;49.40;;;;;;5046556;28;20033;-64
2020/12/11 07:14:07;;;;;;;10.85;6.43;;;19.20;49.40;;;;;;5046243;28;20036;-64
2020/12/11 07:16:42;;;;;;;8.98;5.93;;;19.20;49.50;;;;;;5028494;28;20028;-63
2020/12/11 07:19:08;;;;;;;9.32;6.88;;;19.20;49.50;;;;;;5045966;28;20029;-64
2020/12/11 07:21:33;;;;;;;9.35;6.30;;;19.20;49.50;;;;;;5046280;28;20320;-64
2020/12/11 07:24:05;;;;;;;7.53;6.25;;;19.20;49.50;;;;;;5046329;28;20037;-63
2020/12/11 07:26:30;;;;;;;6.53;5.88;;;19.10;49.50;;;;;;5046822;28;20608;-63
2020/12/11 07:29:07;;;;;;;8.50;5.18;;;19.10;49.50;;;;;;5046956;28;20040;-64
2020/12/11 07:31:43;;;;;;;6.88;5.93;;;19.10;50.10;;;;;;5066164;28;20032;-64
2020/12/11 07:34:15;;;;;;;6.35;5.45;;;19.00;49.40;;;;;;5053987;28;20037;-61
2020/12/11 07:36:41;;;;;;;6.25;5.38;;;19.00;49.50;;;;;;5028140;28;20033;-61
2020/12/11 07:39:17;;;;;;;7.65;5.82;;;19.00;49.50;;;;;;5045769;28;20037;-64
2020/12/11 07:41:46;;;;;;;6.45;5.57;;;18.90;49.50;;;;;;5008670;28;20112;-63
2020/12/11 07:44:24;;;;;;;7.25;5.82;;;18.90;49.50;;;;;;5025285;28;20029;-61
2020/12/11 07:46:54;;;;;;;14.27;6.03;;;18.90;49.60;;;;;;5026385;28;20057;-65
2020/12/11 07:49:20;;;;;;;8.02;6.18;;;18.90;49.60;;;;;;5025798;28;20256;-62
2020/12/11 07:51:49;;;;;;;7.15;5.75;;;18.80;49.60;;;;;;5026459;28;20384;-63
2020/12/11 07:54:15;;;;;;;9.43;6.55;;;18.80;49.70;;;;;;5026958;28;20037;-63
2020/12/11 07:56:40;;;;;;;13.50;8.07;;;18.90;50.40;;;;;;5029022;28;20041;-65
2020/12/11 07:59:10;;;;;;;13.55;9.10;;;19.00;50.60;;;;;;5028246;28;20411;-64
2020/12/11 08:01:37;;;;;;;12.00;8.02;;;19.00;50.60;;;;;;5028674;28;20125;-64
2020/12/11 08:04:02;;;;;;;17.25;8.73;;;19.00;50.60;;;;;;5026594;28;20029;-64
2020/12/11 08:06:28;;;;;;;17.77;8.70;;;19.10;50.50;;;;;;5011180;28;20036;-63
2020/12/11 08:08:53;;;;;;;15.43;8.70;;;19.10;50.60;;;;;;5027017;28;20029;-63
2020/12/11 08:11:23;;;;;;;16.52;9.45;;;19.20;50.80;;;;;;5027441;28;20071;-63
2020/12/11 08:13:59;;;;;;;16.00;8.52;;;19.20;50.70;;;;;;5027916;28;20037;-64
2020/12/11 08:16:25;;;;;;;14.32;8.73;;;19.20;50.80;;;;;;5027693;28;20038;-64
2020/12/11 08:18:50;;;;;;;17.77;9.18;;;19.30;50.90;;;;;;5026037;28;20033;-63
2020/12/11 08:21:27;;;;;;;16.05;8.35;;;19.40;50.80;;;;;;5025379;28;20049;-64
2020/12/11 08:23:53;;;;;;;14.15;8.68;;;19.40;50.80;;;;;;5027306;28;20041;-64
2020/12/11 08:26:19;;;;;;;16.08;8.48;;;19.40;50.60;;;;;;5026004;28;20030;-64
2020/12/11 08:28:46;;;;;;;13.10;7.85;;;19.50;50.70;;;;;;5028578;28;20108;-64
2020/12/11 08:31:13;;;;;;;17.60;8.88;;;19.50;50.70;;;;;;5025818;28;20037;-65
2020/12/11 08:33:38;;;;;;;16.17;8.00;;;19.40;50.50;;;;;;5025574;28;20128;-64
2020/12/11 08:36:03;;;;;;;14.10;9.48;;;19.50;50.40;;;;;;5026726;28;20475;-61
2020/12/11 08:38:29;;;;;;;18.77;9.55;;;19.50;51.20;;;;;;5027015;28;20029;-62
2020/12/11 08:40:54;;;;;;;17.98;8.93;;;19.50;51.90;;;;;;5025008;28;20476;-63
2020/12/11 08:43:32;;;;;;;16.65;8.75;;;19.50;50.90;;;;;;5025384;28;20040;-60
2020/12/11 08:46:16;;;;;;;15.82;9.27;;;19.50;50.90;;;;;;5025887;28;20029;-62
2020/12/11 08:48:58;;;;;;;16.00;9.00;;;19.50;51.10;;;;;;5025158;28;20060;-60
2020/12/11 08:51:24;;;;;;;18.58;9.85;;;19.40;52.10;;;;;;5024291;28;20215;-62
2020/12/11 08:53:53;;;;;;;16.42;9.48;;;19.40;52.90;;;;;;5025375;28;20116;-61
2020/12/11 08:56:18;;;;;;;16.52;9.38;;;19.40;53.20;;;;;;5024952;28;20478;-60
2020/12/11 08:58:44;;;;;;;15.80;9.70;;;19.40;53.60;;;;;;5024708;28;20041;-63
2020/12/11 09:01:09;;;;;;;16.65;10.25;;;19.40;54.90;;;;;;5024714;28;20045;-63
2020/12/11 09:03:35;;;;;;;15.60;9.15;;;19.40;56.10;;;;;;5024813;28;20036;-64
2020/12/11 09:06:00;;;;;;;14.05;9.82;;;19.30;55.70;;;;;;5026104;28;20455;-62
2020/12/11 09:08:26;;;;;;;12.75;9.40;;;19.30;55.70;;;;;;5024956;28;20040;-64
2020/12/11 09:10:51;;;;;;;14.75;9.05;;;19.30;58.40;;;;;;5057481;22;20029;-62
2020/12/11 09:13:17;;;;;;;16.85;9.38;;;19.30;56.80;;;;;;5063248;28;20063;-61
2020/12/11 09:15:42;;;;;;;14.27;8.25;;;19.20;57.60;;;;;;5063674;28;20516;-59
2020/12/11 09:18:08;;;;;;;21.33;9.63;;;19.20;57.20;;;;;;5064800;28;20039;-62
2020/12/11 09:20:33;;;;;;;15.63;9.05;;;19.20;58.90;;;;;;5064805;28;20033;-48
2020/12/11 09:22:59;;;;;;;15.95;9.07;;;19.20;58.70;;;;;;5046345;28;20371;-50
2020/12/11 09:25:24;;;;;;;13.55;8.98;;;19.20;59.30;;;;;;5063691;28;20116;-60
2020/12/11 09:27:50;;;;;;;13.00;8.80;;;19.10;58.30;;;;;;5062855;28;20114;-61
2020/12/11 09:30:36;;;;;;;17.83;9.50;;;19.10;59.40;;;;;;5045571;28;20037;-64
2020/12/11 09:33:20;;;;;;;12.25;8.32;;;19.10;59.40;;;;;;5063185;28;20024;-57
2020/12/11 09:35:45;;;;;;;13.60;8.75;;;19.10;60.40;;;;;;5051967;28;20036;-60
2020/12/11 09:38:11;;;;;;;14.85;8.85;;;19.00;59.90;;;;;;5066930;28;20577;-61
2020/12/11 09:40:48;;;;;;;12.88;8.68;;;19.00;60.10;;;;;;5049665;28;20032;-53
2020/12/11 09:48:48;;;;;;;11.05;8.00;;;18.90;60.40;;;;;;5051497;28;20458;-55
2020/12/11 09:51:39;;;;;;;11.75;8.40;;;18.90;61.30;;;;;;5067217;28;20032;-61
2020/12/11 09:56:37;;;;;;;10.38;7.22;;;18.80;61.00;;;;;;5067139;28;20043;-61
2020/12/11 09:59:14;;;;;;;12.18;7.53;;;18.80;60.70;;;;;;5067133;28;20021;-55
2020/12/11 10:02:04;;;;;;;9.80;7.15;;;18.80;61.00;;;;;;5066214;28;20661;-62
2020/12/11 10:04:30;;;;;;;12.35;7.22;;;18.80;60.30;;;;;;5066315;28;20033;-61
2020/12/11 10:06:55;;;;;;;9.38;6.32;;;18.90;59.30;;;;;;5048832;28;20036;-54
2020/12/11 10:09:21;;;;;;;9.70;6.00;;;19.00;58.80;;;;;;5066450;28;20041;-62
2020/12/11 10:11:50;;;;;;;9.27;6.90;;;19.10;58.80;;;;;;5066063;28;20617;-58
2020/12/11 10:16:59;;;;;;;8.88;5.90;;;19.40;59.10;;;;;;5051203;28;20078;-52
2020/12/11 10:19:25;;;;;;;7.25;5.72;;;19.40;59.40;;;;;;5066501;28;20029;-61
2020/12/11 10:21:51;;;;;;;8.02;6.28;;;19.60;59.10;;;;;;5066250;28;20025;-55
2020/12/11 10:24:16;;;;;;;8.77;6.07;;;19.60;59.00;;;;;;5066409;28;20040;-61
2020/12/11 10:26:42;;;;;;;13.70;6.10;;;19.60;59.00;;;;;;5066379;28;20532;-62
2020/12/11 10:29:08;;;;;;;8.35;5.57;;;19.70;59.00;;;;;;5066461;28;20029;-61
2020/12/11 10:31:33;;;;;;;7.97;5.75;;;19.70;58.70;;;;;;5065747;28;20039;-61
2020/12/11 10:33:59;;;;;;;8.23;5.85;;;19.70;58.80;;;;;;5066520;28;20021;-61
2020/12/11 10:36:31;;;;;;;9.13;5.63;;;19.70;58.90;;;;;;5066326;28;20059;-61
2020/12/11 10:38:57;;;;;;;9.15;5.85;;;19.70;58.90;;;;;;5048562;28;20020;-53
2020/12/11 10:41:22;;;;;;;8.70;5.45;;;19.70;58.80;;;;;;5047694;28;20064;-54
2020/12/11 10:43:48;;;;;;;7.50;5.10;;;19.60;58.70;;;;;;5065340;28;20115;-62
2020/12/11 10:46:14;;;;;;;8.02;5.13;;;19.60;58.70;;;;;;5065622;28;20093;-60
2020/12/11 10:48:39;;;;;;;6.38;4.93;;;19.60;58.60;;;;;;5066372;28;20487;-59
2020/12/11 10:51:05;;;;;;;7.15;5.70;;;19.60;58.50;;;;;;5065794;28;20039;-61
2020/12/11 10:53:30;;;;;;;9.13;5.30;;;19.60;58.20;;;;;;5065926;28;20032;-61
2020/12/11 10:55:56;;;;;;;8.32;5.75;;;19.50;58.10;;;;;;5047876;28;20035;-61
2020/12/11 10:58:22;;;;;;;8.52;6.18;;;19.50;58.10;;;;;;5065145;28;20033;-54
2020/12/11 11:00:47;;;;;;;8.23;6.07;;;19.50;58.30;;;;;;5065253;28;20597;-57
2020/12/11 11:03:13;;;;;;;6.80;5.20;;;19.40;57.90;;;;;;5066434;28;20074;-61
2020/12/11 11:05:39;;;;;;;6.07;5.18;;;19.40;58.00;;;;;;5065348;28;20093;-61
2020/12/11 11:08:05;;;;;;;6.32;4.95;;;19.40;58.30;;;;;;5065330;28;20093;-61
2020/12/11 11:10:40;;;;;;;8.00;5.53;;;19.30;58.20;;;;;;5065289;28;20458;-61
2020/12/11 11:16:10;;;;;;;7.35;4.70;;;19.30;58.60;;;;;;4963843;28;20390;-54
2020/12/11 11:18:42;;;;;;;7.40;4.68;;;19.20;58.60;;;;;;4963634;28;20394;-50
2020/12/11 11:26:41;;;;;;;7.47;5.10;;;19.20;58.80;;;;;;5065114;28;20410;-53
2020/12/11 11:29:07;;;;;;;5.53;4.95;;;19.10;58.70;;;;;;5065249;28;20052;-60
2020/12/11 11:31:32;;;;;;;6.13;4.53;;;19.10;59.10;;;;;;5065086;28;20406;-61
2020/12/11 11:34:01;;;;;;;6.95;5.45;;;19.10;59.10;;;;;;5046936;28;20029;-54
2020/12/11 11:36:28;;;;;;;7.20;4.75;;;19.10;58.90;;;;;;5047499;28;20200;-62
2020/12/11 11:38:53;;;;;;;7.05;5.30;;;19.00;58.70;;;;;;5064772;28;20033;-61
2020/12/11 11:41:44;;;;;;;5.30;4.78;;;19.00;59.00;;;;;;5063326;28;20028;-62
2020/12/11 11:46:49;;;;;;;6.82;4.50;;;19.00;59.50;;;;;;5065277;28;20156;-61
2020/12/11 11:49:19;;;;;;;6.32;5.43;;;18.90;59.20;;;;;;5064776;28;20067;-61
2020/12/11 11:51:56;;;;;;;5.97;5.15;;;18.90;59.80;;;;;;5064705;28;20021;-61
2020/12/11 11:54:22;;;;;;;8.02;4.93;;;18.90;59.30;;;;;;5064312;28;20402;-59
2020/12/11 11:56:47;;;;;;;5.80;4.68;;;18.90;59.20;;;;;;5046445;28;20040;-60
2020/12/11 11:59:13;;;;;;;5.15;4.47;;;18.80;59.00;;;;;;5064181;28;20116;-61
2020/12/11 12:01:38;;;;;;;6.57;4.65;;;18.80;59.00;;;;;;5045179;28;20097;-56
2020/12/11 12:04:04;;;;;;;5.90;5.07;;;18.80;58.80;;;;;;5063913;28;20032;-61
2020/12/11 12:06:29;;;;;;;5.80;4.97;;;18.70;59.00;;;;;;5064625;28;20036;-60
2020/12/11 12:08:55;;;;;;;5.80;4.65;;;18.70;58.90;;;;;;5063777;28;20036;-61
2020/12/11 12:11:20;;;;;;;6.32;4.95;;;18.70;58.80;;;;;;5063889;28;20036;-54
2020/12/11 12:13:46;;;;;;;6.22;4.72;;;18.70;58.60;;;;;;5045524;28;20055;-61
2020/12/11 12:16:15;;;;;;;7.22;4.05;;;18.80;58.20;;;;;;5063689;28;20036;-53
2020/12/11 12:18:43;;;;;;;4.05;3.63;;;19.10;58.40;;;;;;5046168;28;20558;-61
2020/12/11 12:21:17;;;;;;;4.07;3.17;;;19.20;58.50;;;;;;5063755;28;20120;-60
2020/12/11 12:29:11;;;;;;;4.45;3.55;;;19.60;58.30;;;;;;5048998;28;20561;-61
2020/12/11 12:31:45;;;;;;;4.78;3.47;;;19.70;58.20;;;;;;5045458;28;20079;-60
2020/12/11 12:34:56;;;;;;;4.38;3.55;;;19.80;58.00;;;;;;5063125;28;20039;-55
2020/12/11 12:37:11;;;;;;;5.47;3.78;;;19.80;57.80;;;;;;5051913;28;20020;-55
2020/12/11 12:42:24;;;;;;;5.65;3.25;;;19.80;57.40;;;;;;5062366;28;20759;-61
2020/12/11 12:44:49;;;;;;;3.90;3.50;;;19.90;57.30;;;;;;5063786;28;20035;-61
2020/12/11 12:47:15;;;;;;;4.00;3.47;;;19.80;57.10;;;;;;5063352;28;20029;-55
2020/12/11 12:49:40;;;;;;;4.57;3.58;;;19.80;56.90;;;;;;5063012;28;20106;-52
2020/12/11 12:52:06;;;;;;;5.32;3.75;;;19.80;56.80;;;;;;5063018;28;20032;-61
2020/12/11 12:54:31;;;;;;;3.75;3.20;;;19.80;56.70;;;;;;5063441;28;20554;-61
2020/12/11 12:57:00;;;;;;;4.18;3.55;;;19.80;56.60;;;;;;5062606;28;20064;-51
2020/12/11 12:59:41;;;;;;;4.43;3.47;;;19.70;56.50;;;;;;5063301;28;20116;-53
2020/12/11 13:07:06;;;;;;;4.10;3.38;;;19.70;56.20;;;;;;5063627;28;20032;-61
2020/12/11 13:09:31;;;;;;;3.83;3.42;;;19.60;56.80;;;;;;5067280;28;20104;-61
2020/12/11 13:11:57;;;;;;;4.40;3.45;;;19.60;56.10;;;;;;5049520;28;20170;-62
2020/12/11 13:14:22;;;;;;;4.43;3.78;;;19.60;56.10;;;;;;5050317;28;20029;-51
2020/12/11 13:16:48;;;;;;;3.53;3.13;;;19.50;55.90;;;;;;5067595;28;20538;-61
2020/12/11 13:19:16;;;;;;;5.22;3.90;;;19.50;55.70;;;;;;5067967;28;20406;-54
2020/12/11 13:21:53;;;;;;;3.78;3.20;;;19.50;55.60;;;;;;5067296;28;20449;-54